Time;durP1;ratioP1;P1;durP2;ratioP2;P2;SDS_P1;SDS_P2;PMS_P1;PMS_P2;Temp;Humidity;BMP_temperature;BMP_pressure;BME280_temperature;BME280_humidity;BME280_pressure;Samples;Min_cycle;Max_cycle;Signal;HPM_P1;HPM_P2
2020/12/17 00:00:07;;;;;;;4.55;3.10;;;20.80;48.50;;;;;;5030364;28;20061;-45
2020/12/17 00:02:33;;;;;;;3.88;3.13;;;20.90;48.60;;;;;;5030637;28;20064;-48
2020/12/17 00:04:58;;;;;;;5.57;2.85;;;20.80;48.50;;;;;;5030013;28;20073;-42
2020/12/17 00:07:24;;;;;;;3.58;2.65;;;20.80;48.40;;;;;;5031133;28;20100;-45
2020/12/17 00:09:50;;;;;;;4.13;2.88;;;20.80;48.40;;;;;;5030181;28;20100;-40
2020/12/17 00:12:15;;;;;;;3.40;2.72;;;20.80;48.40;;;;;;5030975;28;20466;-46
2020/12/17 00:14:41;;;;;;;4.55;3.00;;;20.80;48.30;;;;;;5031522;28;20038;-45
2020/12/17 00:17:06;;;;;;;3.45;2.67;;;20.80;48.30;;;;;;5028949;28;20662;-46
2020/12/17 00:19:32;;;;;;;3.58;2.55;;;20.80;48.40;;;;;;5030020;28;20040;-49
2020/12/17 00:21:58;;;;;;;4.47;3.30;;;20.80;49.00;;;;;;5030269;28;20100;-46
2020/12/17 00:24:23;;;;;;;4.72;3.05;;;20.80;48.30;;;;;;5031068;28;20080;-45
2020/12/17 00:26:49;;;;;;;4.20;2.90;;;20.80;48.30;;;;;;5029999;28;20030;-47
2020/12/17 00:29:15;;;;;;;3.47;2.60;;;20.80;48.30;;;;;;5031007;28;20041;-45
2020/12/17 00:31:40;;;;;;;3.70;2.85;;;20.80;48.20;;;;;;5030611;28;20056;-47
2020/12/17 00:34:06;;;;;;;4.45;2.70;;;20.80;48.30;;;;;;5030036;28;20037;-50
2020/12/17 00:36:32;;;;;;;4.47;3.05;;;20.80;48.20;;;;;;5030828;28;20038;-55
2020/12/17 00:38:58;;;;;;;4.18;2.63;;;20.80;48.20;;;;;;5030845;28;20049;-46
2020/12/17 00:41:23;;;;;;;3.45;2.55;;;20.80;48.20;;;;;;5033397;28;20113;-51
2020/12/17 00:43:49;;;;;;;4.78;2.80;;;20.80;48.20;;;;;;5033949;28;20053;-58
2020/12/17 00:46:16;;;;;;;5.10;2.92;;;20.80;48.10;;;;;;5034614;28;20112;-46
2020/12/17 00:48:42;;;;;;;4.00;2.97;;;20.80;48.20;;;;;;5034417;28;20491;-44
2020/12/17 00:51:08;;;;;;;5.00;2.40;;;20.80;48.10;;;;;;5033129;28;20029;-59
2020/12/17 00:53:34;;;;;;;4.03;2.75;;;20.80;48.10;;;;;;5033339;28;20104;-47
2020/12/17 00:56:00;;;;;;;5.97;3.05;;;20.80;48.10;;;;;;5033896;28;20105;-46
2020/12/17 00:58:26;;;;;;;3.85;2.50;;;20.80;48.10;;;;;;5031923;28;20417;-48
2020/12/17 01:00:51;;;;;;;3.65;2.55;;;20.80;48.10;;;;;;5034090;28;20025;-44
2020/12/17 01:03:17;;;;;;;3.70;2.80;;;20.80;48.00;;;;;;5032777;28;20076;-47
2020/12/17 01:05:43;;;;;;;4.10;2.70;;;20.80;48.00;;;;;;5034190;28;20449;-46
2020/12/17 01:08:08;;;;;;;3.00;2.65;;;20.80;48.00;;;;;;5033862;28;20469;-46
2020/12/17 01:10:34;;;;;;;3.55;2.70;;;20.80;48.00;;;;;;5034410;28;20022;-38
2020/12/17 01:13:00;;;;;;;4.03;2.85;;;20.80;48.00;;;;;;5033055;28;20458;-48
2020/12/17 01:15:25;;;;;;;3.80;2.60;;;20.70;47.90;;;;;;5034150;28;20485;-46
2020/12/17 01:17:51;;;;;;;4.65;2.67;;;20.80;47.90;;;;;;5033231;28;20056;-51
2020/12/17 01:20:18;;;;;;;3.47;2.80;;;20.70;47.90;;;;;;5034189;28;20025;-44
2020/12/17 01:22:44;;;;;;;4.72;3.03;;;20.70;47.90;;;;;;5033540;28;20025;-53
2020/12/17 01:25:09;;;;;;;4.65;3.30;;;20.70;47.80;;;;;;5033314;28;20053;-43
2020/12/17 01:27:35;;;;;;;3.83;2.88;;;20.80;47.80;;;;;;5033533;28;20104;-44
2020/12/17 01:30:01;;;;;;;2.90;2.60;;;20.70;47.80;;;;;;5032923;28;20517;-43
2020/12/17 01:32:27;;;;;;;4.60;3.03;;;20.70;47.80;;;;;;5033881;28;20053;-46
2020/12/17 01:34:53;;;;;;;3.10;2.70;;;20.70;47.70;;;;;;5032934;28;20041;-50
2020/12/17 01:37:18;;;;;;;3.47;2.80;;;20.70;47.70;;;;;;5031832;28;20383;-49
2020/12/17 01:39:44;;;;;;;3.92;2.40;;;20.70;47.80;;;;;;5033478;28;20025;-48
2020/12/17 01:42:10;;;;;;;5.00;3.00;;;20.70;47.70;;;;;;5032797;28;20037;-52
2020/12/17 01:44:42;;;;;;;3.13;2.40;;;20.70;47.70;;;;;;5033385;28;20030;-50
2020/12/17 01:47:08;;;;;;;3.13;2.65;;;20.70;47.60;;;;;;5032874;28;20088;-47
2020/12/17 01:49:34;;;;;;;3.92;2.88;;;20.70;47.60;;;;;;5031660;28;20120;-48
2020/12/17 01:52:00;;;;;;;3.15;2.75;;;20.70;47.60;;;;;;5032709;28;20102;-46
2020/12/17 01:54:25;;;;;;;3.55;2.60;;;20.70;47.60;;;;;;5033613;28;20061;-41
2020/12/17 01:57:10;;;;;;;3.05;2.63;;;20.70;47.60;;;;;;5032463;28;20051;-55
2020/12/17 01:59:47;;;;;;;3.40;2.65;;;20.70;47.60;;;;;;5031711;28;20057;-40
2020/12/17 02:02:19;;;;;;;3.50;2.70;;;20.70;47.50;;;;;;5032217;28;20108;-43
2020/12/17 02:04:45;;;;;;;3.33;2.70;;;20.70;47.60;;;;;;5033432;28;20390;-42
2020/12/17 02:07:11;;;;;;;3.88;2.90;;;20.70;47.60;;;;;;5031997;28;20033;-47
2020/12/17 02:09:37;;;;;;;3.58;3.00;;;20.70;47.50;;;;;;5033114;28;20104;-46
2020/12/17 02:12:04;;;;;;;3.28;2.85;;;20.70;47.50;;;;;;5032271;28;20036;-46
2020/12/17 02:14:29;;;;;;;3.63;2.28;;;20.70;47.50;;;;;;5032868;28;20044;-44
2020/12/17 02:16:55;;;;;;;4.05;2.60;;;20.70;47.50;;;;;;5032641;28;20029;-40
2020/12/17 02:19:22;;;;;;;4.13;2.75;;;20.70;47.50;;;;;;5032791;28;20368;-43
2020/12/17 02:21:48;;;;;;;3.15;2.67;;;20.70;47.40;;;;;;5033277;28;20084;-46
2020/12/17 02:24:21;;;;;;;3.00;2.60;;;20.70;47.50;;;;;;5031949;28;20057;-48
2020/12/17 02:26:47;;;;;;;3.13;2.53;;;20.70;47.40;;;;;;5032771;28;20029;-50
2020/12/17 02:29:13;;;;;;;3.85;2.72;;;20.70;47.40;;;;;;5031653;28;20080;-48
2020/12/17 02:31:38;;;;;;;3.15;2.28;;;20.70;47.40;;;;;;5024358;28;20098;-43
2020/12/17 02:34:04;;;;;;;4.72;2.97;;;20.70;47.30;;;;;;5032031;28;20060;-51
2020/12/17 02:36:30;;;;;;;3.17;2.47;;;20.70;47.30;;;;;;5032352;28;20029;-53
2020/12/17 02:38:56;;;;;;;4.07;2.70;;;20.70;47.30;;;;;;5031747;28;20041;-39
2020/12/17 02:41:22;;;;;;;3.15;2.30;;;20.70;47.30;;;;;;5032543;28;20029;-56
2020/12/17 02:43:47;;;;;;;3.20;2.30;;;20.70;47.30;;;;;;5032715;28;20155;-45
2020/12/17 02:46:13;;;;;;;3.03;2.50;;;20.70;47.30;;;;;;5031934;28;20029;-39
2020/12/17 02:48:38;;;;;;;3.97;2.50;;;20.70;47.30;;;;;;5032511;28;20459;-47
2020/12/17 02:51:04;;;;;;;2.78;2.35;;;20.60;47.20;;;;;;5031573;28;20030;-47
2020/12/17 02:53:30;;;;;;;3.08;2.60;;;20.70;47.30;;;;;;5047116;28;20026;-51
2020/12/17 02:55:55;;;;;;;2.92;2.40;;;20.70;47.20;;;;;;5031598;28;20125;-50
2020/12/17 02:58:21;;;;;;;3.47;2.40;;;20.70;47.20;;;;;;5031775;28;20131;-47
2020/12/17 03:00:47;;;;;;;3.45;2.50;;;20.70;47.20;;;;;;5031997;28;20033;-47
2020/12/17 03:03:13;;;;;;;2.72;2.40;;;20.60;47.10;;;;;;5030638;28;20112;-46
2020/12/17 03:05:40;;;;;;;2.88;2.20;;;20.70;47.20;;;;;;5024020;28;20060;-46
2020/12/17 03:08:05;;;;;;;4.82;2.88;;;20.60;47.10;;;;;;5030972;28;20101;-45
2020/12/17 03:10:31;;;;;;;2.90;2.55;;;20.60;47.10;;;;;;5031655;28;20105;-49
2020/12/17 03:12:57;;;;;;;3.47;2.53;;;20.60;47.10;;;;;;5031080;28;20025;-42
2020/12/17 03:15:22;;;;;;;3.28;2.63;;;20.70;47.20;;;;;;5031841;28;20455;-46
2020/12/17 03:17:48;;;;;;;3.78;2.70;;;20.70;47.10;;;;;;5031835;28;20080;-50
2020/12/17 03:20:13;;;;;;;3.22;2.58;;;20.70;47.10;;;;;;5031102;28;20022;-42
2020/12/17 03:22:40;;;;;;;2.83;2.22;;;20.70;47.10;;;;;;5032095;28;20021;-39
2020/12/17 03:25:08;;;;;;;3.05;2.35;;;20.60;47.00;;;;;;5030554;28;20036;-48
2020/12/17 03:27:34;;;;;;;3.35;2.30;;;20.60;47.00;;;;;;5031560;28;20041;-54
2020/12/17 03:30:01;;;;;;;3.08;2.28;;;20.70;47.00;;;;;;5030890;28;20877;-53
2020/12/17 03:32:26;;;;;;;3.83;2.45;;;20.70;47.00;;;;;;5031274;28;20408;-57
2020/12/17 03:34:52;;;;;;;4.60;2.67;;;20.70;47.00;;;;;;5031446;28;20048;-58
2020/12/17 03:37:17;;;;;;;2.75;2.08;;;20.70;47.00;;;;;;5030718;28;20470;-50
2020/12/17 03:39:43;;;;;;;2.78;2.22;;;20.70;47.00;;;;;;5031085;28;20526;-50
2020/12/17 03:42:09;;;;;;;2.80;2.45;;;20.70;46.90;;;;;;5031051;28;20391;-56
2020/12/17 03:44:34;;;;;;;3.53;2.58;;;20.60;46.80;;;;;;5031353;28;20410;-49
2020/12/17 03:47:00;;;;;;;2.40;2.00;;;20.70;46.90;;;;;;5030378;28;20086;-47
2020/12/17 03:49:26;;;;;;;3.10;2.53;;;20.70;46.90;;;;;;5031528;28;20036;-52
2020/12/17 03:51:51;;;;;;;3.47;2.53;;;20.70;46.90;;;;;;5031379;28;20021;-52
2020/12/17 03:54:17;;;;;;;2.88;2.45;;;20.70;46.90;;;;;;5030680;28;20064;-45
2020/12/17 03:56:43;;;;;;;2.60;2.17;;;20.70;46.80;;;;;;5030603;28;20382;-52
2020/12/17 03:59:08;;;;;;;3.08;2.42;;;20.70;46.80;;;;;;5030362;28;20029;-47
2020/12/17 04:01:34;;;;;;;2.67;2.40;;;20.70;46.80;;;;;;5031394;28;20029;-55
2020/12/17 04:04:00;;;;;;;2.95;2.38;;;20.70;46.80;;;;;;5030285;28;20445;-43
2020/12/17 04:06:25;;;;;;;2.95;2.45;;;20.70;46.80;;;;;;5030463;28;20104;-48
2020/12/17 04:08:51;;;;;;;2.85;2.38;;;20.70;46.80;;;;;;5031185;28;20067;-43
2020/12/17 04:11:17;;;;;;;3.70;2.50;;;20.70;46.80;;;;;;5030125;28;20029;-43
2020/12/17 04:13:42;;;;;;;2.53;1.98;;;20.70;46.80;;;;;;5048583;28;20083;-54
2020/12/17 04:16:08;;;;;;;2.67;2.22;;;20.60;46.70;;;;;;5034418;28;20026;-50
2020/12/17 04:18:33;;;;;;;3.55;2.33;;;20.70;46.70;;;;;;5035207;28;20034;-46
2020/12/17 04:21:00;;;;;;;3.10;2.65;;;20.70;46.70;;;;;;5033303;28;20421;-51
2020/12/17 04:23:26;;;;;;;3.65;2.25;;;20.70;46.70;;;;;;5033334;28;20033;-47
2020/12/17 04:25:51;;;;;;;2.97;2.20;;;20.70;46.70;;;;;;5034821;28;20475;-47
2020/12/17 04:28:17;;;;;;;3.22;2.30;;;20.70;46.70;;;;;;5034443;28;20474;-47
2020/12/17 04:30:43;;;;;;;2.60;2.10;;;20.70;46.70;;;;;;5034865;28;20030;-42
2020/12/17 04:33:08;;;;;;;2.60;2.30;;;20.60;46.60;;;;;;5033851;28;20045;-46
2020/12/17 04:35:34;;;;;;;3.25;2.08;;;20.70;46.60;;;;;;5034530;28;20052;-49
2020/12/17 04:38:00;;;;;;;2.60;2.40;;;20.70;46.60;;;;;;5034297;28;20021;-44
2020/12/17 04:40:25;;;;;;;2.83;2.08;;;20.70;46.60;;;;;;5050213;28;20025;-43
2020/12/17 04:42:51;;;;;;;3.03;2.33;;;20.70;46.60;;;;;;5034769;28;20529;-43
2020/12/17 04:45:19;;;;;;;4.15;2.67;;;20.70;46.60;;;;;;5034130;28;20025;-47
2020/12/17 04:47:46;;;;;;;3.75;2.70;;;20.70;46.60;;;;;;5049928;28;20540;-38
2020/12/17 04:50:15;;;;;;;2.70;2.10;;;20.70;46.60;;;;;;5033794;28;20377;-45
2020/12/17 04:52:42;;;;;;;3.00;2.53;;;20.70;46.60;;;;;;5034507;28;20378;-47
2020/12/17 04:55:09;;;;;;;2.55;2.22;;;20.70;46.60;;;;;;5033673;28;20121;-51
2020/12/17 04:57:41;;;;;;;3.55;2.20;;;20.70;46.60;;;;;;5034551;28;20022;-47
2020/12/17 05:00:06;;;;;;;;;;;20.70;46.60;;;;;;5033976;28;20447;-54
2020/12/17 05:02:35;;;;;;;2.75;2.20;;;20.70;46.50;;;;;;5032960;28;19959;-45
2020/12/17 05:05:01;;;;;;;5.10;3.38;;;20.70;46.50;;;;;;5033674;28;20042;-50
2020/12/17 05:07:27;;;;;;;2.58;1.90;;;20.70;46.50;;;;;;5034301;28;20473;-51
2020/12/17 05:09:52;;;;;;;2.85;2.17;;;20.70;46.50;;;;;;5034294;28;20060;-45
2020/12/17 05:12:18;;;;;;;3.30;1.83;;;20.70;46.50;;;;;;5033306;28;20532;-45
2020/12/17 05:14:45;;;;;;;2.85;2.20;;;20.70;47.10;;;;;;5033855;28;20478;-46
2020/12/17 05:17:11;;;;;;;3.17;2.10;;;20.70;46.40;;;;;;5033460;28;20055;-47
2020/12/17 05:19:37;;;;;;;3.30;2.20;;;20.70;46.40;;;;;;5034370;28;20017;-47
2020/12/17 05:22:05;;;;;;;2.97;2.33;;;20.70;46.40;;;;;;5031909;28;20037;-46
2020/12/17 05:24:31;;;;;;;2.58;2.15;;;20.70;46.40;;;;;;5033076;28;20375;-48
2020/12/17 05:26:58;;;;;;;2.25;1.90;;;20.70;46.40;;;;;;5033541;28;20030;-59
2020/12/17 05:29:25;;;;;;;2.63;2.25;;;20.70;46.40;;;;;;5033946;28;20068;-45
2020/12/17 05:31:52;;;;;;;2.80;2.13;;;20.70;46.30;;;;;;5033507;28;20037;-50
2020/12/17 05:34:18;;;;;;;3.72;2.72;;;20.70;46.40;;;;;;5033090;28;20037;-41
2020/12/17 05:36:45;;;;;;;2.53;2.03;;;20.70;46.30;;;;;;5033802;28;20031;-48
2020/12/17 05:39:21;;;;;;;2.47;1.90;;;20.70;46.30;;;;;;5032707;28;20438;-47
2020/12/17 05:41:49;;;;;;;2.30;1.88;;;20.70;46.30;;;;;;5033828;28;20055;-49
2020/12/17 05:44:18;;;;;;;2.53;2.00;;;20.70;46.30;;;;;;5032801;28;20025;-44
2020/12/17 05:46:48;;;;;;;2.92;2.20;;;20.70;46.30;;;;;;5033495;28;20036;-49
2020/12/17 05:49:17;;;;;;;3.05;2.15;;;20.70;46.30;;;;;;5032667;28;20037;-44
2020/12/17 05:51:44;;;;;;;2.17;1.90;;;20.70;46.30;;;;;;5033613;28;20075;-49
2020/12/17 05:54:20;;;;;;;2.80;2.10;;;20.70;46.20;;;;;;5032617;28;20049;-39
2020/12/17 05:56:47;;;;;;;2.53;2.03;;;20.70;46.30;;;;;;5025981;28;20553;-55
2020/12/17 05:59:12;;;;;;;2.83;1.83;;;20.70;46.30;;;;;;5032534;28;20061;-47
2020/12/17 06:01:39;;;;;;;2.28;1.88;;;20.70;46.20;;;;;;5032686;28;20068;-46
2020/12/17 06:04:15;;;;;;;3.05;1.95;;;20.70;46.30;;;;;;5032626;28;20037;-46
2020/12/17 06:06:49;;;;;;;2.53;2.00;;;20.70;46.20;;;;;;5032734;28;20364;-46
2020/12/17 06:09:22;;;;;;;3.17;2.33;;;20.70;46.20;;;;;;5032614;28;20033;-46
2020/12/17 06:11:49;;;;;;;2.25;1.83;;;20.70;46.20;;;;;;5031343;28;20029;-44
2020/12/17 06:14:19;;;;;;;3.03;1.90;;;20.80;46.20;;;;;;5032001;28;20038;-47
2020/12/17 06:16:53;;;;;;;3.65;1.90;;;20.80;46.20;;;;;;5048647;28;20382;-44
2020/12/17 06:19:23;;;;;;;3.20;1.98;;;20.80;46.20;;;;;;5024570;28;20025;-43
2020/12/17 06:21:49;;;;;;;2.50;1.85;;;20.70;46.10;;;;;;5033086;28;20053;-47
2020/12/17 06:24:19;;;;;;;2.58;2.25;;;20.80;46.20;;;;;;5031662;28;20479;-46
2020/12/17 06:26:52;;;;;;;3.42;2.35;;;20.70;46.10;;;;;;5032462;28;20430;-42
2020/12/17 06:29:22;;;;;;;2.83;1.88;;;20.70;46.10;;;;;;5030966;28;20467;-39
2020/12/17 06:31:56;;;;;;;4.30;1.92;;;20.80;46.10;;;;;;5032692;28;20080;-39
2020/12/17 06:34:22;;;;;;;2.03;1.73;;;20.80;46.10;;;;;;5031988;28;20078;-50
2020/12/17 06:36:57;;;;;;;2.28;1.90;;;20.80;46.10;;;;;;5038874;28;20088;-41
2020/12/17 06:39:24;;;;;;;2.88;1.75;;;20.80;46.00;;;;;;5032249;28;20039;-45
2020/12/17 06:41:50;;;;;;;2.75;2.00;;;20.70;46.00;;;;;;5032096;28;20060;-48
2020/12/17 06:44:29;;;;;;;2.72;1.98;;;20.80;46.10;;;;;;5047441;28;20442;-46
2020/12/17 06:46:59;;;;;;;2.80;2.15;;;20.80;45.90;;;;;;5032380;28;20108;-42
2020/12/17 06:49:27;;;;;;;2.90;1.90;;;20.80;46.00;;;;;;5032064;28;20036;-49
2020/12/17 06:52:07;;;;;;;2.42;1.95;;;20.80;46.00;;;;;;5032480;28;20030;-43
2020/12/17 06:54:41;;;;;;;2.30;1.85;;;20.80;46.00;;;;;;5024784;28;20041;-40
2020/12/17 06:57:17;;;;;;;3.22;2.22;;;20.80;46.00;;;;;;5031447;28;20108;-44
2020/12/17 07:00:08;;;;;;;4.25;1.70;;;20.80;46.00;;;;;;5025119;28;20620;-46
2020/12/17 07:02:41;;;;;;;3.08;1.70;;;20.80;46.00;;;;;;5032067;28;20520;-48
2020/12/17 07:05:07;;;;;;;2.90;2.05;;;20.80;46.20;;;;;;5031553;28;20068;-46
2020/12/17 07:07:44;;;;;;;4.30;2.63;;;20.80;46.10;;;;;;5031580;28;20107;-47
2020/12/17 07:10:27;;;;;;;3.10;2.10;;;20.80;46.10;;;;;;5031920;28;20152;-38
2020/12/17 07:12:53;;;;;;;1.83;1.63;;;20.80;46.10;;;;;;5031862;28;20109;-52
2020/12/17 07:15:35;;;;;;;4.53;2.03;;;20.80;46.10;;;;;;5029480;28;20183;-43
2020/12/17 07:18:20;;;;;;;3.22;1.90;;;20.80;46.30;;;;;;5031588;28;20029;-58
2020/12/17 07:21:03;;;;;;;3.63;2.13;;;20.80;46.30;;;;;;5031643;28;20108;-45
2020/12/17 07:23:36;;;;;;;3.08;2.20;;;20.80;46.30;;;;;;5031900;28;20026;-43
2020/12/17 07:26:14;;;;;;;4.20;2.25;;;20.80;46.30;;;;;;5031642;28;20072;-57
2020/12/17 07:28:41;;;;;;;2.85;1.80;;;20.90;46.40;;;;;;5030902;28;20108;-42
2020/12/17 07:31:07;;;;;;;6.10;2.28;;;20.90;46.50;;;;;;5030998;28;20373;-47
2020/12/17 07:33:39;;;;;;;2.80;1.88;;;20.90;46.70;;;;;;5031681;28;20068;-46
2020/12/17 07:36:09;;;;;;;4.03;2.20;;;20.80;46.70;;;;;;5030994;28;20045;-53
2020/12/17 07:38:35;;;;;;;5.50;2.60;;;20.90;46.70;;;;;;5031408;28;20034;-45
2020/12/17 07:41:01;;;;;;;6.28;2.13;;;20.90;46.70;;;;;;5031636;28;20025;-57
2020/12/17 07:43:40;;;;;;;8.90;2.30;;;20.90;46.80;;;;;;5030558;28;20486;-51
2020/12/17 07:46:08;;;;;;;10.30;3.05;;;20.90;46.80;;;;;;5022153;28;20029;-51
2020/12/17 07:48:49;;;;;;;7.63;3.20;;;20.90;46.80;;;;;;5030679;28;20078;-54
2020/12/17 07:51:14;;;;;;;6.28;3.28;;;20.80;46.30;;;;;;5024672;28;20383;-48
2020/12/17 07:53:45;;;;;;;6.50;3.90;;;20.80;45.30;;;;;;5029903;28;20029;-49
2020/12/17 07:56:11;;;;;;;8.20;4.03;;;20.80;44.20;;;;;;5022595;28;20064;-44
2020/12/17 07:58:37;;;;;;;10.55;4.55;;;20.70;43.70;;;;;;5031291;28;20029;-54
2020/12/17 08:01:03;;;;;;;7.30;4.20;;;20.70;43.20;;;;;;5029089;28;20037;-56
2020/12/17 08:03:31;;;;;;;8.00;4.68;;;20.70;42.90;;;;;;5031504;28;20036;-46
2020/12/17 08:06:05;;;;;;;8.25;4.63;;;20.70;42.20;;;;;;5031219;28;20037;-46
2020/12/17 08:08:31;;;;;;;11.35;5.72;;;20.70;41.80;;;;;;5031464;28;20045;-48
2020/12/17 08:10:58;;;;;;;8.35;5.70;;;20.70;41.20;;;;;;5030869;28;20156;-47
2020/12/17 08:13:25;;;;;;;7.93;4.07;;;20.70;41.00;;;;;;5029416;28;20572;-47
2020/12/17 08:15:58;;;;;;;6.63;4.50;;;20.80;44.00;;;;;;5029426;28;20072;-47
2020/12/17 08:18:25;;;;;;;6.75;4.28;;;20.90;44.30;;;;;;5030661;28;20017;-46
2020/12/17 08:21:07;;;;;;;8.43;4.45;;;20.90;44.20;;;;;;5031197;28;20067;-46
2020/12/17 08:23:35;;;;;;;8.38;3.95;;;20.90;44.50;;;;;;5046622;28;20116;-45
2020/12/17 08:26:02;;;;;;;5.50;3.40;;;20.90;44.70;;;;;;5031219;28;20029;-44
2020/12/17 08:28:30;;;;;;;6.15;3.85;;;20.90;44.80;;;;;;5029838;28;20037;-47
2020/12/17 08:31:12;;;;;;;5.78;3.30;;;21.00;44.90;;;;;;5030371;28;20036;-46
2020/12/17 08:33:45;;;;;;;5.43;3.22;;;21.00;45.10;;;;;;5030452;28;20041;-45
2020/12/17 08:36:14;;;;;;;6.50;3.60;;;21.00;45.10;;;;;;5029390;28;20099;-42
2020/12/17 08:38:40;;;;;;;5.43;3.35;;;20.90;45.00;;;;;;5031259;28;20030;-45
2020/12/17 08:41:08;;;;;;;7.70;3.47;;;21.00;44.90;;;;;;5029946;28;20041;-59
2020/12/17 08:43:41;;;;;;;6.22;3.20;;;21.00;45.00;;;;;;5030836;28;20029;-45
2020/12/17 08:46:15;;;;;;;3.42;2.80;;;21.10;44.90;;;;;;5029748;28;20033;-49
2020/12/17 08:48:42;;;;;;;7.80;3.17;;;21.00;44.90;;;;;;5030803;28;20378;-45
2020/12/17 08:51:12;;;;;;;3.85;2.58;;;21.00;44.90;;;;;;5028943;28;20057;-52
2020/12/17 08:53:43;;;;;;;4.43;3.20;;;21.00;44.90;;;;;;5030511;28;20037;-44
2020/12/17 08:56:14;;;;;;;3.53;2.75;;;21.00;45.00;;;;;;5028901;28;20038;-45
2020/12/17 08:59:05;;;;;;;4.80;2.90;;;21.00;45.00;;;;;;5030405;28;20017;-43
2020/12/17 09:01:36;;;;;;;3.63;2.60;;;21.00;45.10;;;;;;5028803;28;20030;-56
2020/12/17 09:04:09;;;;;;;5.25;2.60;;;21.00;45.10;;;;;;5034129;28;20033;-41
2020/12/17 09:06:37;;;;;;;5.75;3.22;;;21.00;45.10;;;;;;5034054;28;20022;-44
2020/12/17 09:09:15;;;;;;;5.03;3.00;;;21.00;45.20;;;;;;5034225;28;20044;-53
2020/12/17 09:11:45;;;;;;;9.43;2.90;;;21.00;45.30;;;;;;5026686;28;20033;-49
2020/12/17 09:14:11;;;;;;;4.25;2.97;;;21.00;45.30;;;;;;5033196;28;20048;-47
2020/12/17 09:16:40;;;;;;;5.75;3.08;;;21.00;45.30;;;;;;5033981;28;20022;-56
2020/12/17 09:19:08;;;;;;;4.72;2.80;;;20.90;45.30;;;;;;5032344;28;20032;-56
2020/12/17 09:21:54;;;;;;;3.78;2.42;;;20.90;45.30;;;;;;5033867;28;20355;-43
2020/12/17 09:24:31;;;;;;;5.70;2.50;;;20.90;45.30;;;;;;5033406;28;20121;-45
2020/12/17 09:26:57;;;;;;;4.10;2.67;;;20.90;45.30;;;;;;5033880;28;20084;-45
2020/12/17 09:29:24;;;;;;;4.47;2.75;;;20.90;45.40;;;;;;5032845;28;20078;-43
2020/12/17 09:31:49;;;;;;;3.90;2.60;;;20.90;45.40;;;;;;5033225;28;20457;-45
2020/12/17 09:34:17;;;;;;;4.43;2.88;;;20.90;45.40;;;;;;5028587;28;20105;-41
2020/12/17 09:36:53;;;;;;;6.13;3.00;;;20.90;45.40;;;;;;5031982;28;20026;-47
2020/12/17 09:39:19;;;;;;;4.57;2.65;;;20.90;45.40;;;;;;5030350;28;20466;-44
2020/12/17 09:41:57;;;;;;;5.00;2.90;;;20.90;45.50;;;;;;5033414;28;20025;-55
2020/12/17 09:44:34;;;;;;;4.28;2.65;;;20.80;45.50;;;;;;5031295;28;20113;-55
2020/12/17 09:47:01;;;;;;;3.42;2.53;;;20.80;45.50;;;;;;5032848;28;20025;-42
2020/12/17 09:49:35;;;;;;;4.22;2.58;;;20.80;45.50;;;;;;5025296;28;20041;-46
2020/12/17 09:52:04;;;;;;;3.22;2.00;;;20.80;45.50;;;;;;5033467;28;20037;-51
2020/12/17 09:54:30;;;;;;;4.03;2.20;;;20.80;45.50;;;;;;5032555;28;20052;-45
2020/12/17 09:57:09;;;;;;;3.65;2.70;;;20.80;45.50;;;;;;5033168;28;20052;-57
2020/12/17 09:59:34;;;;;;;5.50;2.20;;;20.80;45.50;;;;;;5032899;28;20026;-46
2020/12/17 10:02:01;;;;;;;4.18;2.10;;;20.80;45.50;;;;;;5033337;28;20040;-43
2020/12/17 10:04:27;;;;;;;4.32;2.80;;;20.80;45.50;;;;;;5032357;28;20033;-45
2020/12/17 10:06:54;;;;;;;4.43;2.50;;;20.80;45.60;;;;;;5032938;28;20111;-56
2020/12/17 10:09:20;;;;;;;2.83;2.13;;;20.80;45.50;;;;;;5032269;28;20030;-44
2020/12/17 10:11:48;;;;;;;3.67;2.33;;;20.80;45.60;;;;;;5032895;28;20034;-40
2020/12/17 10:14:14;;;;;;;3.05;1.98;;;20.80;45.60;;;;;;5032165;28;20038;-45
2020/12/17 10:16:39;;;;;;;3.97;2.40;;;20.80;45.60;;;;;;5047848;28;20021;-50
2020/12/17 10:19:05;;;;;;;3.53;2.42;;;20.80;45.60;;;;;;5029574;28;20083;-57
2020/12/17 10:21:30;;;;;;;5.90;2.45;;;20.80;45.70;;;;;;5031243;28;20026;-45
2020/12/17 10:23:56;;;;;;;4.28;2.40;;;20.80;45.80;;;;;;5032566;28;20102;-45
2020/12/17 10:26:22;;;;;;;4.50;2.40;;;20.80;45.90;;;;;;5031787;28;20061;-45
2020/12/17 10:28:47;;;;;;;8.13;2.30;;;20.90;46.00;;;;;;5030891;28;20030;-63
2020/12/17 10:31:13;;;;;;;7.63;2.20;;;20.90;46.20;;;;;;5029802;28;20029;-44
2020/12/17 10:33:39;;;;;;;6.93;2.45;;;21.00;46.20;;;;;;5031182;28;20053;-46
2020/12/17 10:36:05;;;;;;;5.78;2.28;;;21.00;46.20;;;;;;5031437;28;20493;-40
2020/12/17 10:38:30;;;;;;;4.47;2.42;;;21.00;46.40;;;;;;5031555;28;20032;-46
2020/12/17 10:40:56;;;;;;;10.90;2.47;;;21.00;46.40;;;;;;5031366;28;20037;-50
2020/12/17 10:43:22;;;;;;;5.65;2.45;;;21.00;46.50;;;;;;5031710;28;20091;-44
2020/12/17 10:45:47;;;;;;;8.18;2.53;;;21.00;46.60;;;;;;5032265;28;20029;-43
2020/12/17 10:48:13;;;;;;;4.20;2.30;;;21.00;46.60;;;;;;5031243;28;20025;-44
2020/12/17 10:50:39;;;;;;;7.53;2.38;;;21.00;46.80;;;;;;5031396;28;20163;-44
2020/12/17 10:53:04;;;;;;;3.35;2.22;;;21.00;46.80;;;;;;5032145;28;20041;-46
2020/12/17 10:55:30;;;;;;;7.50;2.50;;;21.00;46.80;;;;;;5030911;28;20450;-49
2020/12/17 10:57:56;;;;;;;6.00;2.70;;;20.90;46.80;;;;;;5032200;28;20033;-39
2020/12/17 11:00:22;;;;;;;3.58;2.30;;;21.00;47.10;;;;;;5029858;28;20105;-44
2020/12/17 11:02:47;;;;;;;7.97;2.30;;;21.00;47.00;;;;;;5029881;28;20040;-46
2020/12/17 11:05:13;;;;;;;4.82;2.22;;;21.00;47.00;;;;;;5030706;28;20049;-42
2020/12/17 11:07:38;;;;;;;4.00;2.30;;;20.90;47.00;;;;;;5032349;28;20029;-54
2020/12/17 11:10:04;;;;;;;6.85;2.20;;;21.00;47.10;;;;;;5023680;28;20104;-44
2020/12/17 11:12:31;;;;;;;5.40;2.10;;;21.00;47.20;;;;;;5031308;28;20022;-42
2020/12/17 11:14:56;;;;;;;8.32;2.10;;;21.00;47.20;;;;;;5031271;28;20462;-46
2020/12/17 11:17:22;;;;;;;6.18;2.20;;;21.00;47.20;;;;;;5031110;28;20056;-46
2020/12/17 11:19:48;;;;;;;5.63;1.85;;;21.00;47.30;;;;;;5030990;28;20125;-43
2020/12/17 11:22:13;;;;;;;5.25;2.10;;;21.00;47.60;;;;;;5030526;28;20017;-44
2020/12/17 11:24:39;;;;;;;5.00;1.98;;;21.00;47.60;;;;;;5031071;28;20056;-47
2020/12/17 11:27:05;;;;;;;5.15;2.05;;;21.00;47.60;;;;;;5031135;28;20033;-50
2020/12/17 11:29:31;;;;;;;5.47;2.05;;;21.00;48.20;;;;;;5030448;28;20125;-44
2020/12/17 11:31:56;;;;;;;4.32;2.05;;;21.10;47.80;;;;;;5031286;28;20038;-44
2020/12/17 11:34:22;;;;;;;7.15;2.63;;;21.00;47.70;;;;;;5030464;28;20103;-43
2020/12/17 11:36:48;;;;;;;5.40;2.15;;;21.10;47.80;;;;;;5031470;28;20360;-46
2020/12/17 11:39:14;;;;;;;5.10;1.92;;;21.10;47.80;;;;;;5029282;28;20033;-44
2020/12/17 11:41:40;;;;;;;5.40;2.03;;;21.00;47.80;;;;;;5031153;28;20416;-47
2020/12/17 11:44:06;;;;;;;4.30;2.20;;;21.00;47.80;;;;;;5031497;28;20083;-45
2020/12/17 11:46:32;;;;;;;6.28;1.85;;;21.00;47.80;;;;;;5030419;28;20132;-46
2020/12/17 11:48:58;;;;;;;6.07;2.33;;;21.00;47.80;;;;;;5031334;28;20488;-44
2020/12/17 11:51:23;;;;;;;17.45;4.30;;;21.00;47.80;;;;;;5030533;28;20151;-42
2020/12/17 11:53:49;;;;;;;5.40;1.90;;;21.00;47.80;;;;;;5031274;28;20025;-42
2020/12/17 11:56:15;;;;;;;5.75;1.88;;;21.10;48.00;;;;;;5029656;28;20120;-53
2020/12/17 11:58:42;;;;;;;4.28;1.70;;;21.10;48.00;;;;;;5030969;28;20496;-55
2020/12/17 12:01:09;;;;;;;6.22;2.65;;;21.10;48.00;;;;;;5025867;28;20072;-45
2020/12/17 12:03:35;;;;;;;5.32;1.90;;;21.10;47.90;;;;;;5030552;28;20029;-45
2020/12/17 12:06:01;;;;;;;5.22;1.60;;;21.10;48.00;;;;;;5030546;28;20068;-49
2020/12/17 12:08:26;;;;;;;3.45;1.73;;;21.10;48.00;;;;;;5030385;28;20100;-44
2020/12/17 12:10:52;;;;;;;5.38;1.80;;;21.10;48.10;;;;;;5030108;28;20033;-44
2020/12/17 12:13:18;;;;;;;6.55;2.10;;;21.10;48.10;;;;;;5029852;28;20030;-45
2020/12/17 12:15:43;;;;;;;5.57;2.10;;;21.00;48.00;;;;;;5030389;28;20038;-40
2020/12/17 12:18:09;;;;;;;4.28;1.67;;;21.00;47.90;;;;;;5029897;28;20442;-52
2020/12/17 12:20:35;;;;;;;8.43;1.70;;;21.00;48.10;;;;;;5029422;28;20030;-40
2020/12/17 12:23:01;;;;;;;6.00;2.63;;;21.10;48.20;;;;;;5025903;28;20029;-45
2020/12/17 12:25:27;;;;;;;3.17;1.70;;;21.00;48.10;;;;;;5029627;28;20033;-54
2020/12/17 12:27:52;;;;;;;4.72;1.80;;;21.10;48.30;;;;;;5030749;28;20048;-45
2020/12/17 12:30:18;;;;;;;4.35;1.70;;;21.10;48.20;;;;;;5028306;28;20032;-55
2020/12/17 12:32:43;;;;;;;3.00;1.50;;;21.10;48.10;;;;;;5030435;28;20056;-45
2020/12/17 12:35:11;;;;;;;8.93;2.13;;;21.10;48.10;;;;;;5033421;28;20064;-44
2020/12/17 12:37:36;;;;;;;4.78;1.70;;;21.10;48.10;;;;;;5033208;28;20026;-47
2020/12/17 12:40:02;;;;;;;6.25;1.92;;;21.10;48.20;;;;;;5035197;28;20040;-44
2020/12/17 12:42:28;;;;;;;3.92;1.90;;;21.10;48.20;;;;;;5033512;28;20030;-45
2020/12/17 12:44:54;;;;;;;5.97;2.00;;;21.10;48.20;;;;;;5034377;28;20406;-45
2020/12/17 12:47:19;;;;;;;7.03;2.05;;;21.10;48.20;;;;;;5033590;28;20428;-44
2020/12/17 12:49:45;;;;;;;2.90;1.88;;;21.10;48.30;;;;;;5033775;28;20040;-46